Ulukhaktok Holman Airport
CYHI : now visible

Airfield :











YOU CAN JOIN US ON...

 
LOGIN :

Register | Disclaimer

   EN    FR    IT 

 









Legend :    VFR   Marginal VFR   IFR   Intensive IFR   Very Intensive IFR
Visi :
Ceiling :
>= 8 km
>= 3000ft
5 to 8 km
1000 to 3000 ft
1500m to 5 km
500 to 1000 ft
800 to 1500m
200 to 500 ft
< 800m
< 200 ft
Symbols :   Thunderstorms  Fog  Heavy snow  Heavy precipitations  Wind > 20 kt






- Airport Elevation : 117 ft
- IATA code : YHI


CYHI - Ulukhaktok Holman

CURRENT METAR :
  • 271800Z 05008KT 15SM -SN SCT043 M31/M35 A3003 RMK ST5 SLP177

EXPIRED METARs :
  • 271700Z 05007KT 15SM -SN SCT043 SCT230 M33/M36 A3003 RMK ST3CS1 SLP177
  • 271600Z 04006KT 15SM -SN VCSH FEW025 SCT057 SCT210 M33/M36 A3004 RMK SC1ST3CS1 CS TR VIS S 8 / SH S STTN SLP180
  • 271500Z 05006KT 15SM -SN BKN057 M33/M36 A3003 RMK ST5 /S TR/ AFT 01Z / TR LOOSE SLP177

TAF TAF CYHI
Valid from the 27 at 17:00 until the 28 at 01:00 UTC


271639Z 2717/2801 05006KT P6SM FEW020 SCT060
TEMPO 2717/2720 6SM IC
BECMG 2721/2723 35008KT RMK NXT FCST BY 271900Z



MET'MAP, your aeronautical weather chart ! - Copyright ORBIFLY December 2007 - Disclaimer

ORBIFLY MET'MAP TEAM :

Programming & Development : Alexandra Zaïnal
Concept & original design : Baudouin d'Aumeries
Assistance for programming : Marc-Olivier Méhu
Technical & hardware support : Manuel Goepfert

Contact : metmap@orbifly.com




SOURCES & CREDITS :

   NOAA       Earth
Advisory